Details From LEAL - Alicante
To LXGB - Gibraltar
Flight Number -
Tags generated
Created
Modified
Stats Distance 264 nm / 488 km
Max Altitude 32,700 ft / 9,967 m
Waypoints 5
Social Downloads 1
Likes 0
Share VATSIM

Download

Looking for another format? Having issues loading an existing format? Contact us
Advertisement - Login to hide

Notes

Basic altitude profile: - Ascent Rate: 1000ft/min - Ascent Speed: 160kts - Cruise Altitude: 9000ft - Cruise Speed: 190kts - Descent Rate: 1000ft/min - Descent Speed: 180kts Options: - Use NATs: yes - Use PACOTS: yes - Use low airways: no - Use high airways: yes

Route

LEAL TOSGA UN851 MGA LXGB

ID Type Via Altitude Latitude Longitude Leg Dist Tot Dist Heading (true) Name
O LEAL APT - 0 ft / 0 m 38.28217˚ -0.55816˚ - 0 nm - Alicante
TOSGA FIX - 32,700 ft / 9,967 m 37.62567˚ -2.30736˚ 91 nm 91 nm 245° / 244° -
ROLAS FIX UN851 (AWY-HI) 30,600 ft / 9,327 m 37.41565˚ -2.85436˚ 28 nm 120 nm 244° / 244° -
MGA VOR UN851 (AWY-HI) 24,500 ft / 7,468 m 36.81431˚ -4.36952˚ 81 nm 201 nm 244° / 243° MALAGA VOR-DME
O LXGB APT - 0 ft / 0 m 36.15121˚ -5.34966˚ 61 nm 263 nm 230° / 230° Gibraltar

Altitude Profile

Advertisement - Login to hide

Weather


0- 5 10 15 20 25 30 35+ Temperature / ° C

Clouds and Precipitation
Forecast for 2017-12-13 18:00 UTC. Updated 2 minutes ago

Ground ~20,000 ft ~40,000 ft Winds

LEAL

Details ICAO LEAL (ALC)
Name Alicante
Region Spain
Timezone Europe/Madrid (UTC+1.0)
Stats Elevation 141 ft / 43 m (AMSL)
Location 38.282169° -0.558157°
Runways 1
Magnetic Variation 0.183° E

METAR

LEAL 131300Z 23009KT 180V270 CAVOK 15/M00 Q1025 NOSIG

Decode

TAF

TAF LEAL 131100Z 1312/1412 23010KT CAVOK TX17/1312Z TN07/1407Z PROB40 TEMPO 1322/1412 29018G28KT

Decode

Departure Runways

ID Width Length Bearing (true) Bearing (mag) Surface Threshold Offset Overrun Length
10 148 ft / 45 m 9,799 ft / 2,987 m 100.07° 99.89° Asphalt 0 ft / 0 m 164 ft / 50 m
28 148 ft / 45 m 9,799 ft / 2,987 m 280.09° 279.91° Asphalt 0 ft / 0 m 197 ft / 60 m

LXGB

Details ICAO LXGB (GIB)
Name Gibraltar
Region Gibralter
Timezone Europe/Gibraltar (UTC+1.0)
Stats Elevation 15 ft / 5 m (AMSL)
Location 36.151209° -5.349664°
Runways 1
Magnetic Variation 1.123° W

METAR

LXGB 131250Z 07011KT 9999 FEW015 15/10 Q1028 NOSIG

Decode

TAF

Not found

Destination Runways

ID Width Length Bearing (true) Bearing (mag) Surface Threshold Offset Overrun Length
27 151 ft / 46 m 5,992 ft / 1,826 m 267.56° 268.68° Asphalt 367 ft / 112 m 89 ft / 27 m
9 151 ft / 46 m 5,992 ft / 1,826 m 87.54° 88.66° Asphalt 299 ft / 91 m 52 ft / 16 m

Popular Alternatives